createdAt,value
2022-10-15T00:01:29.334Z,44.15
2022-10-15T00:03:56.342Z,39.38
2022-10-15T00:06:23.344Z,39.67
2022-10-15T00:08:50.322Z,41.35
2022-10-15T00:11:20.323Z,41.47
2022-10-15T00:13:48.540Z,36.05
2022-10-15T00:16:18.582Z,42.75
2022-10-15T00:18:45.846Z,36.63
2022-10-15T00:21:16.300Z,44.10
2022-10-15T00:23:43.907Z,41.58
2022-10-15T00:26:17.232Z,36.45
2022-10-15T00:28:44.578Z,36.67
2022-10-15T00:31:13.709Z,44.08
2022-10-15T00:33:41.245Z,34.65
2022-10-15T00:36:15.320Z,35.15
2022-10-15T00:38:42.922Z,38.25
2022-10-15T00:41:19.889Z,36.72
2022-10-15T00:43:54.218Z,40.83
2022-10-15T00:46:32.341Z,35.75
2022-10-15T00:49:08.382Z,37.13
2022-10-15T00:51:39.966Z,36.53
2022-10-15T00:54:08.355Z,35.08
2022-10-15T00:56:37.833Z,45.15
2022-10-15T00:59:06.375Z,38.97
2022-10-15T01:01:33.506Z,34.50
2022-10-15T01:04:02.666Z,38.50
2022-10-15T01:06:29.646Z,38.67
2022-10-15T01:08:57.025Z,34.40
2022-10-15T01:11:53.760Z,41.40
2022-10-15T01:14:51.715Z,39.60
2022-10-15T01:17:48.291Z,43.08
2022-10-15T01:20:41.472Z,39.63
2022-10-15T01:23:26.084Z,32.88
2022-10-15T01:26:18.342Z,40.08
2022-10-15T01:29:04.139Z,41.67
2022-10-15T01:31:42.970Z,39.97
2022-10-15T01:34:09.936Z,41.15
2022-10-15T01:36:51.453Z,38.17
2022-10-15T01:39:33.383Z,53.63
2022-10-15T01:42:33.002Z,35.70
2022-10-15T01:45:07.276Z,41.33
2022-10-15T01:48:00.012Z,36.92
2022-10-15T01:50:30.920Z,37.60
2022-10-15T01:53:01.090Z,37.42
2022-10-15T01:55:30.047Z,42.67
2022-10-15T01:58:00.367Z,47.65
2022-10-15T02:00:27.313Z,45.05
2022-10-15T02:03:00.155Z,33.10
2022-10-15T02:05:32.095Z,34.95
2022-10-15T02:10:48.516Z,36.85
2022-10-15T02:13:15.398Z,36.83
2022-10-15T02:16:21.370Z,51.42
2022-10-15T02:18:57.623Z,30.98
2022-10-15T02:21:42.497Z,32.25
2022-10-15T02:24:20.303Z,37.70
2022-10-15T02:26:48.738Z,41.47
2022-10-15T02:29:21.499Z,39.53
2022-10-15T02:31:50.509Z,42.50
2022-10-15T02:34:25.611Z,33.42
2022-10-15T02:36:54.589Z,40.97
2022-10-15T02:39:26.624Z,35.80
2022-10-15T02:41:54.567Z,37.65
2022-10-15T02:44:21.955Z,38.67
2022-10-15T02:46:48.916Z,36.20
2022-10-15T02:49:17.939Z,36.72
2022-10-15T02:51:45.036Z,39.75
2022-10-15T02:54:16.399Z,38.60
2022-10-15T02:56:43.456Z,44.17
2022-10-15T02:59:10.676Z,45.60
2022-10-15T03:01:38.324Z,48.67
2022-10-15T03:04:06.117Z,47.88
2022-10-15T03:06:34.019Z,38.70
2022-10-15T03:09:01.045Z,38.97
2022-10-15T03:11:29.947Z,36.00
2022-10-15T03:13:57.288Z,34.80
2022-10-15T03:16:24.557Z,35.47
2022-10-15T03:18:51.543Z,33.85
2022-10-15T03:21:19.133Z,39.28
2022-10-15T03:23:46.660Z,37.45
2022-10-15T03:26:18.639Z,39.35
2022-10-15T03:28:45.924Z,46.08
2022-10-15T03:31:20.557Z,45.83
2022-10-15T03:33:49.253Z,46.63
2022-10-15T03:36:18.587Z,36.78
2022-10-15T03:38:45.586Z,42.17
2022-10-15T03:41:14.167Z,40.70
2022-10-15T03:43:43.054Z,34.40
2022-10-15T03:46:11.695Z,32.50
2022-10-15T03:48:42.750Z,39.03
2022-10-15T03:51:13.803Z,37.45
2022-10-15T03:53:42.249Z,37.00
2022-10-15T03:56:09.284Z,38.35
2022-10-15T03:58:38.851Z,31.35
2022-10-15T04:01:11.916Z,44.30
2022-10-15T04:03:39.275Z,30.55
2022-10-15T04:06:06.748Z,38.22
2022-10-15T04:08:34.948Z,36.72
2022-10-15T04:11:13.094Z,38.45
2022-10-15T04:13:40.096Z,37.85
2022-10-15T04:16:07.629Z,39.13
2022-10-15T04:18:34.598Z,32.30
2022-10-15T04:21:02.272Z,37.65
2022-10-15T04:23:29.229Z,33.15
2022-10-15T04:26:14.989Z,37.22
2022-10-15T04:28:42.244Z,33.05
2022-10-15T04:31:09.831Z,40.58
2022-10-15T04:33:36.965Z,41.22
2022-10-15T04:36:06.942Z,39.03
2022-10-15T04:38:57.267Z,39.20
2022-10-15T04:41:40.226Z,44.45
2022-10-15T04:44:10.249Z,46.28
2022-10-15T04:46:38.351Z,40.72
2022-10-15T04:49:22.627Z,37.33
2022-10-15T04:51:50.511Z,38.10
2022-10-15T04:57:04.261Z,39.65
2022-10-15T04:59:31.715Z,32.40
2022-10-15T05:02:19.470Z,44.60
2022-10-15T05:04:51.518Z,50.63
2022-10-15T05:07:18.554Z,45.42
2022-10-15T05:09:47.258Z,47.65
2022-10-15T05:12:14.524Z,45.40
2022-10-15T05:14:42.002Z,53.25
2022-10-15T05:17:19.160Z,48.25
2022-10-15T05:19:46.281Z,41.25
2022-10-15T05:22:20.563Z,59.80
2022-10-15T05:24:52.325Z,43.25
2022-10-15T05:27:27.772Z,39.42
2022-10-15T05:29:54.751Z,42.55
2022-10-15T05:34:51.542Z,43.72
2022-10-15T05:37:18.547Z,48.92
2022-10-15T05:39:45.482Z,49.50
2022-10-15T05:42:12.440Z,55.90
2022-10-15T05:44:45.104Z,44.00
2022-10-15T05:47:12.513Z,46.47
2022-10-15T05:49:41.197Z,31.23
2022-10-15T05:52:16.981Z,44.63
2022-10-15T05:55:03.842Z,48.30
2022-10-15T05:57:30.822Z,40.35
2022-10-15T05:59:57.763Z,45.90
2022-10-15T06:02:25.039Z,47.53
2022-10-15T06:04:53.449Z,39.63
2022-10-15T06:07:20.791Z,50.67
2022-10-15T06:09:47.865Z,43.17
2022-10-15T06:12:15.840Z,44.05
2022-10-15T06:14:42.746Z,42.70
2022-10-15T06:17:09.705Z,46.58
2022-10-15T06:19:36.659Z,38.45
2022-10-15T06:22:03.813Z,42.72
2022-10-15T06:24:30.739Z,38.83
2022-10-15T06:26:59.962Z,37.80
2022-10-15T06:29:26.892Z,44.28
2022-10-15T06:31:54.874Z,41.17
2022-10-15T06:34:21.888Z,47.05
2022-10-15T06:36:48.839Z,48.20
2022-10-15T06:39:15.728Z,52.03
2022-10-15T06:41:44.821Z,46.80
2022-10-15T06:44:11.913Z,55.75
2022-10-15T06:46:38.837Z,56.80
2022-10-15T06:49:05.835Z,55.13
2022-10-15T06:51:34.726Z,61.45
2022-10-15T06:54:01.649Z,59.88
2022-10-15T06:56:28.615Z,63.78
2022-10-15T06:58:55.637Z,55.30
2022-10-15T07:01:22.605Z,58.55
2022-10-15T07:03:50.803Z,57.35
2022-10-15T07:06:18.235Z,71.65
2022-10-15T07:08:45.941Z,54.95
2022-10-15T07:11:13.013Z,51.75
2022-10-15T07:13:40.049Z,51.97
2022-10-15T07:16:12.437Z,60.92
2022-10-15T07:18:40.140Z,58.67
2022-10-15T07:23:40.868Z,55.83
2022-10-15T07:26:07.923Z,45.53
2022-10-15T07:28:35.018Z,57.42
2022-10-15T07:31:04.358Z,55.28
2022-10-15T07:33:34.384Z,54.40
2022-10-15T07:36:10.272Z,62.92
2022-10-15T07:38:37.490Z,55.95
2022-10-15T07:41:05.544Z,61.22
2022-10-15T07:43:40.400Z,58.15
2022-10-15T07:46:07.415Z,61.40
2022-10-15T07:48:34.439Z,65.90
2022-10-15T07:51:04.764Z,61.55
2022-10-15T07:53:32.373Z,62.92
2022-10-15T07:56:06.351Z,68.03
2022-10-15T07:58:38.270Z,64.00
2022-10-15T08:01:06.892Z,62.83
2022-10-15T08:03:35.159Z,65.68
2022-10-15T08:06:07.503Z,69.47
2022-10-15T08:08:36.127Z,62.60
2022-10-15T08:11:08.570Z,57.50
2022-10-15T08:13:35.555Z,55.03
2022-10-15T08:16:02.535Z,55.40
2022-10-15T08:18:29.508Z,60.85
2022-10-15T08:21:02.135Z,62.50
2022-10-15T08:23:29.156Z,56.58
2022-10-15T08:25:59.211Z,57.28
2022-10-15T08:28:26.984Z,51.58
2022-10-15T08:30:54.102Z,58.63
2022-10-15T08:33:21.135Z,56.63
2022-10-15T08:35:48.058Z,61.97
2022-10-15T08:38:17.629Z,56.55
2022-10-15T08:43:30.537Z,61.53
2022-10-15T08:46:03.224Z,57.63
2022-10-15T08:48:35.852Z,58.70
2022-10-15T08:51:09.786Z,64.63
2022-10-15T08:53:43.016Z,64.10
2022-10-15T08:56:22.562Z,61.63
2022-10-15T08:59:06.253Z,56.28
2022-10-15T09:01:48.076Z,59.13
2022-10-15T09:04:44.109Z,68.38
2022-10-15T09:07:35.801Z,61.63
2022-10-15T09:10:23.903Z,57.13
2022-10-15T09:13:34.026Z,56.15
2022-10-15T09:16:32.593Z,56.35
2022-10-15T09:19:10.508Z,58.13
2022-10-15T09:21:42.800Z,56.40
2022-10-15T09:24:13.830Z,62.10
2022-10-15T09:27:13.118Z,63.80
2022-10-15T09:29:55.124Z,54.80
2022-10-15T09:35:27.274Z,61.45
2022-10-15T09:38:29.143Z,64.13
2022-10-15T09:41:22.414Z,59.35
2022-10-15T09:44:01.831Z,62.42
2022-10-15T09:46:54.418Z,66.75
2022-10-15T09:49:32.529Z,64.25
2022-10-15T09:52:28.602Z,63.90
2022-10-15T09:55:26.595Z,61.45
2022-10-15T09:58:18.663Z,61.13
2022-10-15T10:01:23.138Z,72.13
2022-10-15T10:04:12.765Z,69.70
2022-10-15T10:06:58.016Z,61.25
2022-10-15T10:09:58.669Z,68.60
2022-10-15T10:12:40.442Z,66.95
2022-10-15T10:15:57.498Z,65.88
2022-10-15T10:19:07.115Z,66.22
2022-10-15T10:21:45.670Z,67.43
2022-10-15T10:24:41.899Z,65.45
2022-10-15T10:27:39.928Z,66.50
2022-10-15T10:30:14.902Z,57.45
2022-10-15T10:32:59.624Z,64.90
2022-10-15T10:35:48.877Z,60.80
2022-10-15T10:38:32.613Z,60.38
2022-10-15T10:41:10.956Z,57.33
2022-10-15T10:44:00.389Z,61.13
2022-10-15T10:46:34.837Z,58.20
2022-10-15T10:49:13.480Z,52.78
2022-10-15T10:51:50.434Z,56.42
2022-10-15T10:54:26.287Z,59.20
2022-10-15T10:57:03.652Z,60.50
2022-10-15T10:59:56.337Z,56.35
2022-10-15T11:02:26.975Z,58.33
2022-10-15T11:05:00.613Z,58.80
2022-10-15T11:07:52.029Z,61.03
2022-10-15T11:10:52.202Z,54.63
2022-10-15T11:13:39.632Z,57.53
2022-10-15T11:16:41.401Z,58.03
2022-10-15T11:19:59.774Z,56.87
2022-10-15T11:23:01.403Z,58.45
2022-10-15T11:26:01.436Z,58.50
2022-10-15T11:28:43.583Z,61.92
2022-10-15T11:34:46.597Z,54.85
2022-10-15T11:37:50.544Z,60.85
2022-10-15T11:43:36.103Z,61.80
2022-10-15T11:46:30.538Z,59.17
2022-10-15T11:49:18.695Z,54.53
2022-10-15T11:52:23.184Z,55.97
2022-10-15T11:55:19.845Z,56.28
2022-10-15T11:57:57.132Z,52.72
2022-10-15T12:00:45.286Z,53.47
2022-10-15T12:03:24.528Z,61.88
2022-10-15T12:06:07.427Z,54.35
2022-10-15T12:08:43.177Z,58.17
2022-10-15T12:11:32.812Z,54.60
2022-10-15T12:14:15.632Z,54.50
2022-10-15T12:17:03.336Z,56.40
2022-10-15T12:20:01.686Z,47.72
2022-10-15T12:22:44.094Z,51.08
2022-10-15T12:25:41.822Z,46.13
2022-10-15T12:28:22.992Z,56.47
2022-10-15T12:31:01.552Z,52.55
2022-10-15T12:33:56.509Z,43.60
2022-10-15T12:36:35.847Z,48.10
2022-10-15T12:42:32.065Z,47.22
2022-10-15T12:45:08.011Z,48.47
2022-10-15T12:47:54.413Z,48.58
2022-10-15T12:50:35.869Z,53.97
2022-10-15T12:56:28.157Z,43.83
2022-10-15T12:59:08.096Z,49.97
2022-10-15T13:01:50.018Z,47.20
2022-10-15T13:04:43.707Z,45.78
2022-10-15T13:07:21.579Z,44.88
2022-10-15T13:09:55.064Z,42.33
2022-10-15T13:12:38.226Z,42.75
2022-10-15T13:15:10.533Z,45.63
2022-10-15T13:17:40.531Z,45.95
2022-10-15T13:20:42.960Z,44.30
2022-10-15T13:23:30.765Z,41.63
2022-10-15T13:26:22.523Z,46.60
2022-10-15T13:28:54.211Z,48.55
2022-10-15T13:31:30.661Z,41.05
2022-10-15T13:34:22.305Z,45.15
2022-10-15T13:36:54.336Z,47.55
2022-10-15T13:39:44.617Z,40.33
2022-10-15T13:42:29.690Z,41.08
2022-10-15T13:45:17.622Z,41.55
2022-10-15T13:47:57.162Z,43.55
2022-10-15T13:50:38.445Z,48.05
2022-10-15T13:53:22.048Z,41.38
2022-10-15T13:55:57.411Z,41.22
2022-10-15T13:58:35.225Z,40.83
2022-10-15T14:01:19.064Z,41.95
2022-10-15T14:03:56.351Z,40.08
2022-10-15T14:06:40.519Z,41.33
2022-10-15T14:09:37.653Z,40.50
2022-10-15T14:12:15.659Z,39.58
2022-10-15T14:14:52.701Z,43.05
2022-10-15T14:17:27.882Z,39.90
2022-10-15T14:20:27.259Z,35.67
2022-10-15T14:23:05.865Z,39.28
2022-10-15T14:25:46.059Z,43.47
2022-10-15T14:28:30.494Z,41.95
2022-10-15T14:34:43.768Z,42.85
2022-10-15T14:37:45.935Z,39.63
2022-10-15T14:43:46.723Z,40.90
2022-10-15T14:46:27.062Z,47.67
2022-10-15T14:49:03.057Z,57.47
2022-10-15T14:51:55.754Z,52.15
2022-10-15T14:54:43.179Z,47.58
2022-10-15T14:57:28.513Z,40.05
2022-10-15T15:00:13.322Z,36.83
2022-10-15T15:02:44.547Z,37.33
2022-10-15T15:05:31.792Z,42.50
2022-10-15T15:08:14.827Z,37.13
2022-10-15T15:10:59.981Z,41.67
2022-10-15T15:13:37.578Z,42.65
2022-10-15T15:16:12.992Z,41.25
2022-10-15T15:18:44.174Z,37.92
2022-10-15T15:21:17.444Z,40.25
2022-10-15T15:23:49.519Z,40.50
2022-10-15T15:26:21.790Z,37.08
2022-10-15T15:28:56.080Z,33.80
2022-10-15T15:31:29.996Z,38.72
2022-10-15T15:34:03.962Z,39.42
2022-10-15T15:36:35.392Z,36.97
2022-10-15T15:39:04.335Z,40.17
2022-10-15T15:41:34.689Z,40.35
2022-10-15T15:44:08.038Z,38.35
2022-10-15T15:46:36.675Z,41.35
2022-10-15T15:49:07.639Z,38.97
2022-10-15T15:51:42.754Z,41.65
2022-10-15T15:54:13.794Z,36.63
2022-10-15T15:56:48.212Z,37.53
2022-10-15T15:59:26.119Z,40.47
2022-10-15T16:02:00.297Z,36.55
2022-10-15T16:04:32.469Z,35.53
2022-10-15T16:07:01.416Z,37.83
2022-10-15T16:12:05.766Z,43.03
2022-10-15T16:14:35.537Z,41.83
2022-10-15T16:17:07.805Z,41.10
2022-10-15T16:19:36.320Z,45.83
2022-10-15T16:22:23.444Z,37.05
2022-10-15T16:27:25.093Z,41.00
2022-10-15T16:29:57.789Z,45.80
2022-10-15T16:32:27.866Z,48.65
2022-10-15T16:35:00.661Z,46.78
2022-10-15T16:37:30.892Z,38.80
2022-10-15T16:40:06.831Z,45.53
2022-10-15T16:42:34.386Z,44.63
2022-10-15T16:45:01.434Z,41.63
2022-10-15T16:47:28.532Z,50.05
2022-10-15T16:49:55.790Z,41.85
2022-10-15T16:52:23.057Z,42.28
2022-10-15T16:54:50.397Z,47.97
2022-10-15T16:57:17.325Z,45.67
2022-10-15T16:59:44.455Z,49.22
2022-10-15T17:02:12.358Z,43.08
2022-10-15T17:04:39.969Z,43.58
2022-10-15T17:07:07.050Z,46.95
2022-10-15T17:09:34.204Z,44.72
2022-10-15T17:12:01.254Z,42.20
2022-10-15T17:14:28.528Z,46.35
2022-10-15T17:16:56.118Z,38.85
2022-10-15T17:19:28.901Z,40.63
2022-10-15T17:21:59.226Z,43.22
2022-10-15T17:24:29.802Z,48.15
2022-10-15T17:26:58.080Z,42.75
2022-10-15T17:29:29.089Z,40.78
2022-10-15T17:32:03.051Z,45.03
2022-10-15T17:34:31.376Z,47.45
2022-10-15T17:36:58.678Z,41.97
2022-10-15T17:39:26.220Z,46.55
2022-10-15T17:41:53.725Z,46.55
2022-10-15T17:44:21.276Z,48.35
2022-10-15T17:49:27.566Z,41.38
2022-10-15T17:51:54.726Z,44.85
2022-10-15T17:54:22.000Z,45.35
2022-10-15T17:56:50.461Z,51.03
2022-10-15T17:59:18.608Z,46.25
2022-10-15T18:01:57.797Z,45.40
2022-10-15T18:04:27.586Z,47.05
2022-10-15T18:06:55.191Z,45.83
2022-10-15T18:09:30.801Z,39.83
2022-10-15T18:12:00.642Z,48.35
2022-10-15T18:14:31.508Z,48.35
2022-10-15T18:16:59.606Z,49.28
2022-10-15T18:19:28.467Z,47.30
2022-10-15T18:21:56.669Z,49.22
2022-10-15T18:24:24.898Z,41.50
2022-10-15T18:26:53.055Z,43.83
2022-10-15T18:29:21.098Z,46.03
2022-10-15T18:31:53.419Z,46.45
2022-10-15T18:34:24.488Z,54.05
2022-10-15T18:36:52.146Z,43.13
2022-10-15T18:39:21.870Z,43.83
2022-10-15T18:41:49.561Z,42.08
2022-10-15T18:44:20.901Z,42.65
2022-10-15T18:46:49.210Z,47.28
2022-10-15T18:49:19.263Z,49.78
2022-10-15T18:51:46.780Z,51.78
2022-10-15T18:54:14.853Z,62.20
2022-10-15T18:56:42.313Z,49.92
2022-10-15T18:59:10.074Z,47.85
2022-10-15T19:01:44.184Z,50.45
2022-10-15T19:04:15.865Z,47.70
2022-10-15T19:09:15.034Z,50.15
2022-10-15T19:11:45.370Z,54.38
2022-10-15T19:14:13.647Z,48.20
2022-10-15T19:16:40.838Z,47.65
2022-10-15T19:19:13.259Z,45.55
2022-10-15T19:21:40.462Z,57.42
2022-10-15T19:24:07.686Z,50.85
2022-10-15T19:26:35.453Z,45.75
2022-10-15T19:29:03.699Z,48.38
2022-10-15T19:31:34.007Z,51.53
2022-10-15T19:34:01.680Z,49.08
2022-10-15T19:36:37.998Z,45.75
2022-10-15T19:39:24.965Z,51.95
2022-10-15T19:41:53.225Z,53.08
2022-10-15T19:44:26.042Z,45.08
2022-10-15T19:46:55.432Z,50.90
2022-10-15T19:49:23.030Z,48.65
2022-10-15T19:51:50.791Z,49.20
2022-10-15T19:54:18.531Z,50.28
2022-10-15T19:56:46.316Z,47.03
2022-10-15T19:59:13.998Z,44.33
2022-10-15T20:01:41.577Z,49.95
2022-10-15T20:04:09.415Z,47.78
2022-10-15T20:06:38.692Z,51.67
2022-10-15T20:09:07.127Z,42.80
2022-10-15T20:11:36.357Z,43.95
2022-10-15T20:14:04.006Z,46.92
2022-10-15T20:16:33.080Z,45.58
2022-10-15T20:19:02.997Z,49.90
2022-10-15T20:21:30.227Z,49.83
2022-10-15T20:23:57.777Z,51.15
2022-10-15T20:26:24.925Z,44.42
2022-10-15T20:28:53.528Z,46.85
2022-10-15T20:31:21.704Z,54.80
2022-10-15T20:33:49.459Z,47.45
2022-10-15T20:36:22.596Z,40.40
2022-10-15T20:38:51.742Z,45.45
2022-10-15T20:41:19.165Z,49.50
2022-10-15T20:43:49.836Z,41.90
2022-10-15T20:46:21.944Z,45.60
2022-10-15T20:48:49.549Z,49.83
2022-10-15T20:51:19.014Z,44.75
2022-10-15T20:53:46.466Z,46.95
2022-10-15T20:56:14.022Z,38.60
2022-10-15T20:58:41.733Z,42.40
2022-10-15T21:01:10.265Z,41.28
2022-10-15T21:03:37.314Z,44.85
2022-10-15T21:06:04.458Z,48.88
2022-10-15T21:08:31.428Z,41.92
2022-10-15T21:11:06.998Z,49.20
2022-10-15T21:13:34.448Z,50.05
2022-10-15T21:16:03.396Z,47.25
2022-10-15T21:18:30.765Z,48.88
2022-10-15T21:21:02.762Z,48.83
2022-10-15T21:23:31.438Z,54.35
2022-10-15T21:26:04.963Z,50.30
2022-10-15T21:28:32.823Z,46.22
2022-10-15T21:31:03.413Z,42.78
2022-10-15T21:33:30.371Z,58.13
2022-10-15T21:35:57.565Z,50.47
2022-10-15T21:38:24.528Z,51.50
2022-10-15T21:40:51.559Z,53.03
2022-10-15T21:43:18.535Z,41.63
2022-10-15T21:45:45.523Z,48.45
2022-10-15T21:48:12.491Z,40.20
2022-10-15T21:50:39.429Z,44.28
2022-10-15T21:53:06.381Z,46.25
2022-10-15T21:55:33.809Z,38.75
2022-10-15T21:58:00.803Z,42.45
2022-10-15T22:00:27.838Z,47.55
2022-10-15T22:02:54.799Z,42.25
2022-10-15T22:05:21.821Z,45.95
2022-10-15T22:07:48.835Z,45.30
2022-10-15T22:10:15.851Z,46.30
2022-10-15T22:12:42.888Z,51.53
2022-10-15T22:15:10.280Z,41.90
2022-10-15T22:17:37.208Z,41.45
2022-10-15T22:20:04.425Z,42.72
2022-10-15T22:22:31.375Z,45.92
2022-10-15T22:24:59.691Z,37.53
2022-10-15T22:27:26.943Z,41.53
2022-10-15T22:29:53.895Z,42.70
2022-10-15T22:32:20.857Z,39.88
2022-10-15T22:34:47.774Z,46.17
2022-10-15T22:37:14.731Z,38.20
2022-10-15T22:39:41.651Z,41.80
2022-10-15T22:42:08.632Z,48.45
2022-10-15T22:44:35.566Z,36.85
2022-10-15T22:47:02.478Z,43.67
2022-10-15T22:49:29.432Z,41.75
2022-10-15T22:51:56.769Z,44.88
2022-10-15T22:54:24.059Z,43.95
2022-10-15T22:56:51.823Z,35.60
2022-10-15T22:59:19.111Z,34.72
2022-10-15T23:01:46.126Z,44.85
2022-10-15T23:04:14.867Z,38.90
2022-10-15T23:06:42.255Z,41.20
2022-10-15T23:09:17.804Z,44.03
2022-10-15T23:11:45.596Z,36.65
2022-10-15T23:14:15.069Z,31.63
2022-10-15T23:16:45.088Z,39.28
2022-10-15T23:19:16.897Z,38.38
2022-10-15T23:21:50.023Z,36.30
2022-10-15T23:24:18.923Z,40.92
2022-10-15T23:26:46.723Z,41.40
2022-10-15T23:29:16.112Z,47.20
2022-10-15T23:31:43.263Z,46.58
2022-10-15T23:34:17.513Z,41.17
2022-10-15T23:36:44.584Z,37.22
2022-10-15T23:39:15.173Z,41.33
2022-10-15T23:41:42.912Z,46.22
2022-10-15T23:44:10.401Z,41.38
2022-10-15T23:46:38.075Z,39.38
2022-10-15T23:49:05.425Z,33.78
2022-10-15T23:51:34.742Z,35.30
2022-10-15T23:54:03.735Z,36.28
2022-10-15T23:56:31.311Z,38.50
2022-10-15T23:59:00.212Z,32.35
